Terminal Aerodrome Forecast
Issued by NWS

Home | Current Version | Previous Version | Text Only | Print | Product List | Glossary On
Versions: 1 2 3 4 5 6 7 8 9 10 11 12 13 14 15 16 17 18
000
FTUS43 KLSX 252300
TAFUIN
TAF
KUIN 252320Z 2600/2624 36018G28KT P6SM OVC012
     FM260300 34010KT P6SM OVC012
     FM261500 22008KT P6SM SCT020 BKN080
     FM262000 28007KT P6SM BKN020=

USA.gov is the U.S. government's official web portal to all federal, state and local government web resources and services.